Time;durP1;ratioP1;P1;durP2;ratioP2;P2;SDS_P1;SDS_P2;PMS_P1;PMS_P2;Temp;Humidity;BMP_temperature;BMP_pressure;BME280_temperature;BME280_humidity;BME280_pressure;Samples;Min_cycle;Max_cycle;Signal;HPM_P1;HPM_P2
2022/03/06 00:01:35;;;;;;;20.20;7.45;;;;;;;0.16;59.18;100073.03;5115713;28;20142;-73
2022/03/06 00:04:05;;;;;;;13.77;6.88;;;;;;;0.35;59.32;100077.22;5115784;28;20035;-73
2022/03/06 00:06:37;;;;;;;12.80;5.88;;;;;;;0.39;59.01;100064.88;5115825;28;20051;-73
2022/03/06 00:09:06;;;;;;;16.65;7.00;;;;;;;0.32;59.19;100072.06;5115574;28;20473;-74
2022/03/06 00:11:35;;;;;;;17.40;7.73;;;;;;;0.05;59.49;100073.31;5115848;28;20451;-73
2022/03/06 00:14:05;;;;;;;18.52;7.82;;;;;;;-0.01;60.01;100067.22;5114094;28;20671;-74
2022/03/06 00:16:34;;;;;;;13.73;7.10;;;;;;;-0.03;60.54;100076.31;5115434;28;20036;-73
2022/03/06 00:19:03;;;;;;;17.50;6.93;;;;;;;-0.04;60.72;100072.09;5114678;28;20485;-75
2022/03/06 00:21:33;;;;;;;16.38;7.07;;;;;;;-0.11;61.05;100075.09;5115255;28;20311;-74
2022/03/06 00:24:03;;;;;;;14.35;6.55;;;;;;;-0.14;61.27;100074.94;5115527;28;20047;-74
2022/03/06 00:26:33;;;;;;;14.95;6.70;;;;;;;-0.09;61.41;100073.50;5115877;28;20090;-73
2022/03/06 00:29:02;;;;;;;15.85;6.93;;;;;;;0.03;61.61;100072.34;5115160;28;20096;-73
2022/03/06 00:31:32;;;;;;;15.88;7.05;;;;;;;0.05;61.53;100074.16;5115697;28;20031;-74
2022/03/06 00:34:00;;;;;;;16.20;7.85;;;;;;;0.05;61.57;100066.63;5113750;28;20035;-74
2022/03/06 00:36:30;;;;;;;16.87;7.27;;;;;;;0.06;61.54;100073.38;5115343;28;20384;-73
2022/03/06 00:38:58;;;;;;;12.57;5.47;;;;;;;0.05;61.79;100061.59;5114774;28;20276;-74
2022/03/06 00:41:29;;;;;;;16.03;5.83;;;;;;;0.05;61.69;100065.78;5115117;28;20051;-74
2022/03/06 00:43:58;;;;;;;19.58;8.13;;;;;;;0.05;62.01;100070.81;5114846;28;20275;-74
2022/03/06 00:46:27;;;;;;;16.48;6.43;;;;;;;0.22;61.25;100067.41;5114739;28;20047;-74
2022/03/06 00:48:56;;;;;;;12.93;5.97;;;;;;;0.36;60.62;100066.41;5114954;28;20035;-74
2022/03/06 00:51:26;;;;;;;16.42;6.70;;;;;;;0.37;60.22;100065.59;5115078;28;20291;-73
2022/03/06 00:53:55;;;;;;;14.87;6.63;;;;;;;0.34;60.33;100065.47;5114612;28;20040;-75
2022/03/06 00:56:24;;;;;;;13.33;6.40;;;;;;;0.25;60.39;100063.41;5114615;28;20286;-74
2022/03/06 00:58:54;;;;;;;14.60;6.70;;;;;;;0.34;60.39;100065.47;5114902;28;20043;-74
2022/03/06 01:01:25;;;;;;;15.57;6.90;;;;;;;0.18;59.65;100033.81;5114528;28;20359;-73
2022/03/06 01:03:54;;;;;;;14.00;6.63;;;;;;;0.44;59.84;100063.44;5115472;28;20067;-74
2022/03/06 01:06:23;;;;;;;15.97;6.83;;;;;;;0.37;60.02;100063.97;5115629;28;20039;-75
2022/03/06 01:08:52;;;;;;;19.45;7.05;;;;;;;0.42;59.80;100064.16;5115492;28;20032;-73
2022/03/06 01:11:21;;;;;;;18.13;7.17;;;;;;;0.29;59.10;100052.69;5114465;28;20048;-73
2022/03/06 01:13:51;;;;;;;15.63;6.47;;;;;;;0.32;59.02;100060.38;5114278;28;20042;-74
2022/03/06 01:16:22;;;;;;;14.00;6.68;;;;;;;0.40;59.38;100055.72;5115184;28;20468;-73
2022/03/06 01:18:52;;;;;;;20.50;7.85;;;;;;;0.41;59.22;100048.25;5113369;28;20054;-74
2022/03/06 01:21:21;;;;;;;17.20;6.70;;;;;;;0.51;59.41;100039.47;5113083;28;20046;-73
2022/03/06 01:23:49;;;;;;;14.67;7.30;;;;;;;0.56;58.75;100050.56;5114505;28;20065;-74
2022/03/06 01:26:19;;;;;;;15.13;6.80;;;;;;;0.45;59.26;100039.22;5079307;28;20306;-74
2022/03/06 01:28:48;;;;;;;11.38;6.53;;;;;;;0.39;59.55;100038.91;5114457;28;20028;-73
2022/03/06 01:31:17;;;;;;;19.67;7.47;;;;;;;0.36;59.54;100033.78;5114354;28;20066;-75
2022/03/06 01:33:47;;;;;;;12.55;5.07;;;;;;;0.41;59.64;100034.81;5114101;28;20035;-74
2022/03/06 01:36:16;;;;;;;15.18;7.07;;;;;;;0.17;59.73;100021.19;5114009;28;20537;-73
2022/03/06 01:38:45;;;;;;;16.90;7.83;;;;;;;0.19;60.33;100039.69;5114261;28;20496;-74
2022/03/06 01:41:14;;;;;;;18.08;7.55;;;;;;;0.06;60.78;100044.91;5114011;28;20039;-73
2022/03/06 01:43:43;;;;;;;20.38;7.90;;;;;;;-0.19;61.17;100031.22;5114340;28;20389;-74
2022/03/06 01:46:14;;;;;;;17.00;7.32;;;;;;;-0.08;61.02;100044.28;5113872;28;20040;-73
2022/03/06 01:48:43;;;;;;;19.52;7.57;;;;;;;0.05;61.17;100040.69;5114294;28;20531;-74
2022/03/06 01:51:14;;;;;;;19.47;7.50;;;;;;;0.02;60.97;100043.06;5116446;28;20043;-74
2022/03/06 01:53:43;;;;;;;15.35;7.00;;;;;;;0.04;61.29;100034.81;5118165;28;20512;-74
2022/03/06 01:56:13;;;;;;;17.70;7.97;;;;;;;-0.04;61.10;100013.53;5117221;28;20051;-74
2022/03/06 01:58:42;;;;;;;13.82;6.75;;;;;;;0.08;60.86;100030.78;5118115;28;20058;-74
2022/03/06 02:01:11;;;;;;;14.83;6.33;;;;;;;0.02;60.91;100033.03;5117125;28;20047;-74
2022/03/06 02:03:41;;;;;;;14.82;6.28;;;;;;;-0.18;61.56;100037.09;5117033;28;20276;-74
2022/03/06 02:06:10;;;;;;;14.60;6.33;;;;;;;-0.38;62.10;100045.31;5117928;28;20051;-74
2022/03/06 02:08:40;;;;;;;14.38;6.43;;;;;;;-0.40;62.38;100037.72;5117895;28;20036;-75
2022/03/06 02:11:10;;;;;;;16.50;7.88;;;;;;;-0.40;63.04;100035.22;5117718;28;20044;-75
2022/03/06 02:13:39;;;;;;;14.27;6.18;;;;;;;-0.46;63.09;100032.44;5117762;28;20101;-74
2022/03/06 02:16:09;;;;;;;12.83;5.77;;;;;;;-0.63;63.20;100033.25;5117731;28;20093;-73
2022/03/06 02:18:38;;;;;;;;;;;;;;;-0.85;63.73;100038.88;5118404;28;20329;-73
2022/03/06 02:21:10;;;;;;;16.73;6.18;;;;;;;-0.80;64.22;100039.97;5118219;28;19919;-74
2022/03/06 02:23:40;;;;;;;12.98;5.32;;;;;;;-0.88;64.33;100021.16;5116657;28;20493;-73
2022/03/06 02:26:10;;;;;;;14.05;5.82;;;;;;;-0.76;64.69;100041.81;5117564;28;20036;-73
2022/03/06 02:28:38;;;;;;;;;;;;;;;-0.74;64.61;100049.41;5117945;28;20477;-73
2022/03/06 02:31:08;;;;;;;17.05;6.10;;;;;;;-0.53;64.39;100042.09;5117570;27;19919;-73
2022/03/06 02:33:36;;;;;;;13.30;5.50;;;;;;;-0.38;64.31;100048.69;5116676;28;20495;-73
2022/03/06 02:36:06;;;;;;;16.73;5.80;;;;;;;-0.21;63.54;100041.97;5117468;28;20123;-73
2022/03/06 02:38:37;;;;;;;15.93;6.50;;;;;;;-0.18;63.14;100037.09;5117888;28;20055;-73
2022/03/06 02:41:06;;;;;;;12.65;6.22;;;;;;;-0.21;63.60;100029.44;5117628;28;20062;-73
2022/03/06 02:43:35;;;;;;;11.95;5.53;;;;;;;-0.18;63.27;100032.09;5117206;28;20047;-73
2022/03/06 02:46:04;;;;;;;10.37;4.90;;;;;;;-0.19;62.97;100030.34;5117497;28;20131;-73
2022/03/06 02:48:33;;;;;;;14.30;6.03;;;;;;;-0.30;63.34;100032.38;5117069;28;20288;-73
2022/03/06 02:51:02;;;;;;;13.77;5.90;;;;;;;-0.33;63.79;100037.22;5117061;28;20085;-74
2022/03/06 02:53:31;;;;;;;12.38;5.40;;;;;;;-0.36;63.64;100041.25;5115811;28;20040;-73
2022/03/06 02:56:02;;;;;;;11.30;5.97;;;;;;;-0.45;63.89;100036.66;5117203;28;20508;-73
2022/03/06 02:58:31;;;;;;;19.25;6.53;;;;;;;-0.56;64.15;100030.28;5116981;28;20272;-73
2022/03/06 03:01:00;;;;;;;8.50;5.13;;;;;;;-0.50;64.05;100033.06;5116140;28;20054;-73
2022/03/06 03:03:29;;;;;;;14.35;5.88;;;;;;;-0.41;64.52;100035.16;5117251;28;20550;-73
2022/03/06 03:05:58;;;;;;;13.05;5.97;;;;;;;-0.29;64.06;100041.59;5115602;28;20546;-74
2022/03/06 03:08:27;;;;;;;13.80;6.30;;;;;;;-0.35;63.46;100025.41;5117035;28;20546;-73
2022/03/06 03:10:56;;;;;;;15.57;6.07;;;;;;;-0.26;63.65;100039.25;5116629;28;20290;-73
2022/03/06 03:13:26;;;;;;;13.27;5.53;;;;;;;-0.23;62.73;100033.53;5116599;28;20039;-73
2022/03/06 03:15:55;;;;;;;14.85;5.50;;;;;;;-0.14;62.60;100031.44;5116641;28;20566;-73
2022/03/06 03:18:25;;;;;;;14.33;6.67;;;;;;;-0.11;62.08;100037.47;5116509;28;20093;-73
2022/03/06 03:20:54;;;;;;;12.23;5.88;;;;;;;-0.04;62.09;100041.97;5116506;28;20130;-73
2022/03/06 03:23:23;;;;;;;15.33;6.30;;;;;;;-0.09;61.64;100043.41;5116773;28;20062;-73
2022/03/06 03:25:52;;;;;;;12.43;5.32;;;;;;;-0.09;61.47;100040.03;5116745;28;20031;-74
2022/03/06 03:28:21;;;;;;;13.70;5.80;;;;;;;-0.10;61.23;100045.88;5116340;28;20042;-73
2022/03/06 03:30:51;;;;;;;15.87;6.73;;;;;;;-0.10;61.50;100039.16;5116490;28;20074;-74
2022/03/06 03:33:20;;;;;;;14.15;6.18;;;;;;;-0.07;61.20;100036.81;5098673;28;20058;-73
2022/03/06 03:35:49;;;;;;;10.90;5.47;;;;;;;-0.08;61.45;100042.63;5116151;28;20052;-73
2022/03/06 03:38:18;;;;;;;13.77;5.93;;;;;;;-0.08;61.47;100047.66;5116511;28;20070;-73
2022/03/06 03:40:48;;;;;;;9.63;5.17;;;;;;;-0.01;61.15;100047.16;5115048;28;20042;-74
2022/03/06 03:43:17;;;;;;;11.80;5.65;;;;;;;-0.06;60.95;100048.59;5116345;28;20089;-74
2022/03/06 03:45:46;;;;;;;10.93;5.47;;;;;;;0.00;61.44;100046.34;5116014;28;20134;-73
2022/03/06 03:48:16;;;;;;;14.05;7.32;;;;;;;0.02;61.43;100048.09;5115968;28;20032;-74
2022/03/06 03:50:45;;;;;;;18.35;6.68;;;;;;;0.04;61.13;100049.88;5115942;27;20074;-73
2022/03/06 03:53:14;;;;;;;15.23;6.13;;;;;;;-0.02;61.20;100050.44;5116462;28;20035;-74
2022/03/06 03:55:43;;;;;;;15.07;6.03;;;;;;;-0.01;61.62;100042.13;5116144;28;20630;-74
2022/03/06 03:58:12;;;;;;;14.10;6.53;;;;;;;-0.01;61.62;100052.16;5115822;28;20046;-74
2022/03/06 04:00:41;;;;;;;13.65;6.25;;;;;;;-0.09;62.10;100048.44;5116081;28;20280;-73
2022/03/06 04:03:11;;;;;;;14.65;6.68;;;;;;;-0.01;62.00;100047.16;5115730;28;20039;-73
2022/03/06 04:05:41;;;;;;;15.05;6.72;;;;;;;-0.04;61.98;100044.50;5115966;28;20138;-73
2022/03/06 04:08:10;;;;;;;13.10;6.10;;;;;;;-0.13;62.03;100041.56;5116187;28;20125;-74
2022/03/06 04:10:39;;;;;;;17.77;7.13;;;;;;;-0.24;62.33;100040.19;5115198;28;20047;-74
2022/03/06 04:13:08;;;;;;;15.80;6.73;;;;;;;-0.55;63.03;100014.44;5113928;28;20036;-73
2022/03/06 04:15:37;;;;;;;14.00;6.40;;;;;;;-0.27;62.83;100045.06;5115362;28;20048;-74
2022/03/06 04:18:06;;;;;;;13.25;5.93;;;;;;;-0.36;63.22;100042.09;5115677;28;20126;-73
2022/03/06 04:20:35;;;;;;;13.30;6.53;;;;;;;-0.51;63.08;100020.47;5115854;28;20038;-74
2022/03/06 04:23:06;;;;;;;18.57;6.70;;;;;;;-0.50;63.05;100020.53;5115626;28;20063;-74
2022/03/06 04:25:35;;;;;;;13.73;6.32;;;;;;;-0.25;62.79;100046.00;5115604;28;20071;-73
2022/03/06 04:28:04;;;;;;;13.68;6.85;;;;;;;-0.30;63.05;100052.44;5115544;28;20389;-73
2022/03/06 04:30:33;;;;;;;18.27;6.57;;;;;;;-0.42;63.02;100056.84;5115117;28;20044;-73
2022/03/06 04:33:03;;;;;;;15.88;6.82;;;;;;;-0.40;62.90;100047.75;5113949;28;20061;-73
2022/03/06 04:35:32;;;;;;;13.27;6.07;;;;;;;-0.88;62.82;99975.22;5114988;28;20083;-73
2022/03/06 04:38:01;;;;;;;15.30;6.07;;;;;;;-0.41;62.78;100052.72;5114983;28;20043;-73
2022/03/06 04:40:32;;;;;;;15.52;7.03;;;;;;;-0.34;62.63;100045.56;5115203;28;20056;-74
2022/03/06 04:43:01;;;;;;;14.13;7.03;;;;;;;-0.31;62.31;100049.88;5114951;28;20126;-74
2022/03/06 04:45:30;;;;;;;18.55;6.90;;;;;;;-0.24;61.99;100051.88;5114926;28;20043;-73
2022/03/06 04:47:59;;;;;;;17.00;6.63;;;;;;;-0.26;61.84;100046.78;5115173;28;20067;-74
2022/03/06 04:50:27;;;;;;;17.07;7.33;;;;;;;-0.38;62.01;100043.69;5115111;28;20050;-73
2022/03/06 04:52:56;;;;;;;13.87;7.27;;;;;;;-0.47;61.92;100043.25;5114762;28;20070;-74
2022/03/06 04:55:25;;;;;;;16.37;6.57;;;;;;;-0.55;61.70;100049.50;5114711;28;20032;-74
2022/03/06 04:57:56;;;;;;;17.65;6.40;;;;;;;-0.59;61.35;100045.16;5114953;28;20058;-73
2022/03/06 05:00:25;;;;;;;17.45;6.32;;;;;;;-0.68;61.76;100032.19;5115212;28;20043;-74
2022/03/06 05:02:54;;;;;;;15.93;6.95;;;;;;;-0.48;61.61;100046.53;5114358;28;20036;-73
2022/03/06 05:05:24;;;;;;;14.80;6.55;;;;;;;-0.43;61.19;100055.13;5114615;27;20043;-73
2022/03/06 05:07:53;;;;;;;12.70;5.70;;;;;;;-0.44;60.98;100053.41;5113349;28;20097;-73
2022/03/06 05:10:22;;;;;;;15.05;6.30;;;;;;;-0.50;60.64;100035.56;5114274;28;20074;-73
2022/03/06 05:12:50;;;;;;;13.73;5.78;;;;;;;-0.40;61.08;100040.25;5114611;28;20497;-73
2022/03/06 05:15:21;;;;;;;17.00;6.50;;;;;;;-0.33;60.71;100044.75;5114499;28;20040;-74
2022/03/06 05:17:50;;;;;;;16.63;6.25;;;;;;;-0.27;60.67;100047.56;5114967;28;20028;-74
2022/03/06 05:20:19;;;;;;;12.98;6.43;;;;;;;-0.27;60.65;100052.59;5114260;28;20074;-74
2022/03/06 05:22:48;;;;;;;15.60;7.13;;;;;;;-0.29;60.22;100051.63;5114092;28;20056;-74
2022/03/06 05:25:17;;;;;;;13.27;5.90;;;;;;;-0.35;60.20;100053.84;5113335;28;20043;-73
2022/03/06 05:27:46;;;;;;;17.67;7.00;;;;;;;-0.35;60.17;100048.84;5078750;28;20279;-73
2022/03/06 05:30:15;;;;;;;12.88;5.93;;;;;;;-0.29;59.93;100054.13;5114038;28;20050;-73
2022/03/06 05:32:45;;;;;;;14.20;6.03;;;;;;;-0.22;59.77;100047.78;5112820;28;20040;-73
2022/03/06 05:35:14;;;;;;;14.48;6.45;;;;;;;-0.18;59.83;100053.03;5114107;28;20048;-73
2022/03/06 05:37:43;;;;;;;15.77;6.77;;;;;;;-0.26;59.89;100051.78;5114105;28;20035;-73
2022/03/06 05:40:13;;;;;;;14.85;6.80;;;;;;;-0.25;60.08;100050.16;5114281;28;20374;-73
2022/03/06 05:42:51;;;;;;;16.63;6.53;;;;;;;-0.29;60.47;100049.13;5113993;28;20493;-73
2022/03/06 05:45:20;;;;;;;14.73;7.00;;;;;;;-0.20;60.16;100052.09;5113980;28;20035;-73
2022/03/06 05:47:51;;;;;;;14.00;5.70;;;;;;;-0.17;60.11;100049.72;5113167;28;20044;-73
2022/03/06 05:50:20;;;;;;;16.25;6.80;;;;;;;-0.07;60.01;100046.84;5114093;28;20142;-72
2022/03/06 05:52:50;;;;;;;17.98;6.60;;;;;;;0.09;59.56;100052.59;5113981;28;20040;-74
2022/03/06 05:55:19;;;;;;;12.38;5.80;;;;;;;0.12;59.36;100052.75;5114007;28;20100;-75
2022/03/06 05:57:48;;;;;;;17.05;6.40;;;;;;;0.06;59.13;100048.28;5113902;28;20058;-75
2022/03/06 06:00:18;;;;;;;11.02;6.00;;;;;;;-0.06;58.90;100033.53;5114174;28;20044;-74
2022/03/06 06:02:47;;;;;;;14.10;5.70;;;;;;;0.03;58.65;100058.16;5114130;28;20040;-74
2022/03/06 06:05:18;;;;;;;14.52;6.20;;;;;;;-0.01;58.93;100057.19;5112947;28;20059;-74
2022/03/06 06:07:48;;;;;;;14.20;5.63;;;;;;;-0.04;59.04;100057.03;5112704;28;20104;-74
2022/03/06 06:10:17;;;;;;;17.58;7.18;;;;;;;-0.03;59.04;100063.78;5113444;28;20048;-74
2022/03/06 06:12:47;;;;;;;12.23;5.35;;;;;;;-0.06;58.93;100063.63;5114038;28;20063;-74
2022/03/06 06:15:16;;;;;;;16.75;6.90;;;;;;;-0.03;59.04;100063.78;5078933;28;20052;-74
2022/03/06 06:17:45;;;;;;;15.60;6.28;;;;;;;0.18;59.19;100065.56;5113932;28;20071;-74
2022/03/06 06:20:14;;;;;;;16.27;6.57;;;;;;;0.36;58.79;100059.72;5113094;28;20043;-73
2022/03/06 06:22:45;;;;;;;10.45;4.80;;;;;;;0.33;58.60;100067.13;5113688;28;20373;-72
2022/03/06 06:25:14;;;;;;;11.05;6.15;;;;;;;0.31;58.49;100060.31;5112296;28;20073;-72
2022/03/06 06:27:43;;;;;;;13.20;6.27;;;;;;;0.47;58.64;100065.25;5113886;28;20059;-72
2022/03/06 06:30:13;;;;;;;17.63;6.97;;;;;;;0.58;58.34;100031.41;5113413;28;20078;-72
2022/03/06 06:32:42;;;;;;;12.45;5.47;;;;;;;0.93;57.58;100061.47;5113450;28;20048;-72
2022/03/06 06:35:11;;;;;;;12.15;6.13;;;;;;;0.89;57.21;100064.63;5112680;28;20059;-74
2022/03/06 06:37:40;;;;;;;12.98;5.68;;;;;;;0.80;57.09;100070.88;5116263;28;20577;-73
2022/03/06 06:40:11;;;;;;;12.90;6.43;;;;;;;0.81;57.41;100070.09;5117421;28;20047;-73
2022/03/06 06:42:41;;;;;;;12.40;6.40;;;;;;;0.80;56.99;100069.25;5117145;28;20055;-73
2022/03/06 06:45:11;;;;;;;14.02;6.65;;;;;;;0.89;57.18;100066.28;5117365;28;20044;-73
2022/03/06 06:47:40;;;;;;;11.25;5.00;;;;;;;1.20;56.73;100072.66;5117162;28;20409;-74
2022/03/06 06:50:09;;;;;;;11.33;5.63;;;;;;;1.42;56.83;100073.59;5117687;28;20073;-74
2022/03/06 06:52:38;;;;;;;13.93;5.95;;;;;;;1.29;56.35;100072.22;5117382;28;20039;-74
2022/03/06 06:55:08;;;;;;;14.33;5.90;;;;;;;1.15;56.24;100074.13;5116558;28;20065;-74
2022/03/06 06:57:38;;;;;;;;;;;;;;;1.16;56.06;100073.34;5117559;27;20320;-74
2022/03/06 07:00:08;;;;;;;15.52;5.88;;;;;;;1.28;56.52;100083.91;5117042;28;19919;-74
2022/03/06 07:02:37;;;;;;;10.07;5.20;;;;;;;1.27;55.87;100074.66;5116869;28;20489;-74
2022/03/06 07:05:07;;;;;;;11.65;5.57;;;;;;;1.40;56.07;100077.69;5116903;28;20027;-74
2022/03/06 07:07:35;;;;;;;;;;;;;;;1.27;55.66;100078.84;5116333;28;20036;-74
2022/03/06 07:10:05;;;;;;;13.18;5.28;;;;;;;1.16;55.88;100075.88;5116545;28;19919;-73
2022/03/06 07:12:42;;;;;;;;;;;;;;;1.11;56.48;100079.81;5117431;28;20048;-73
2022/03/06 07:15:14;;;;;;;9.77;5.00;;;;;;;1.20;56.30;100087.75;5116987;28;20010;-74
2022/03/06 07:17:43;;;;;;;10.45;5.20;;;;;;;1.19;56.19;100081.03;5116518;28;20056;-75
2022/03/06 07:20:12;;;;;;;13.15;5.85;;;;;;;1.33;56.13;100074.91;5116956;28;20024;-74
2022/03/06 07:22:41;;;;;;;17.52;5.95;;;;;;;1.36;56.39;100096.81;5115500;28;20486;-74
2022/03/06 07:25:10;;;;;;;11.48;5.82;;;;;;;1.27;56.23;100087.22;5115356;28;20066;-74
2022/03/06 07:27:39;;;;;;;13.57;5.70;;;;;;;1.28;56.22;100091.47;5116323;28;20074;-74
2022/03/06 07:30:11;;;;;;;13.52;5.25;;;;;;;1.40;55.96;100082.69;5116609;28;20061;-74
2022/03/06 07:32:43;;;;;;;11.48;5.65;;;;;;;1.60;56.04;100089.44;5115539;28;20593;-73
2022/03/06 07:35:13;;;;;;;12.40;5.60;;;;;;;1.64;55.91;100086.22;5116097;28;20043;-73
2022/03/06 07:37:42;;;;;;;;;;;;;;;1.83;56.08;100088.69;5116706;28;20061;-74
2022/03/06 07:40:14;;;;;;;12.68;4.97;;;;;;;1.90;56.06;100093.19;5115220;28;19920;-74
2022/03/06 07:42:43;;;;;;;9.73;5.00;;;;;;;1.90;55.41;100089.00;5114815;28;20449;-74
2022/03/06 07:45:14;;;;;;;8.45;3.97;;;;;;;1.98;55.28;100081.78;5116432;28;20054;-73
2022/03/06 07:47:43;;;;;;;15.10;6.03;;;;;;;1.95;55.54;100080.00;5115625;28;20493;-75
2022/03/06 07:50:14;;;;;;;12.85;6.05;;;;;;;2.01;55.48;100084.41;5115738;28;20043;-75
2022/03/06 07:52:44;;;;;;;13.43;6.10;;;;;;;1.91;55.03;100072.25;5115934;28;20067;-73
2022/03/06 07:55:14;;;;;;;14.32;6.15;;;;;;;1.96;55.64;100078.34;5115875;28;20044;-74
2022/03/06 07:57:43;;;;;;;16.25;6.60;;;;;;;2.03;55.03;100082.81;5115426;28;20089;-73
2022/03/06 08:00:15;;;;;;;15.70;6.97;;;;;;;1.96;55.01;100078.34;5115516;28;20063;-73
2022/03/06 08:02:44;;;;;;;14.73;6.55;;;;;;;2.03;55.29;100072.75;5115709;28;20485;-74
2022/03/06 08:05:13;;;;;;;13.32;6.38;;;;;;;2.15;54.57;100068.19;5115541;28;20040;-73
2022/03/06 08:07:42;;;;;;;14.10;6.53;;;;;;;2.21;55.11;100075.13;5115530;28;20122;-74
2022/03/06 08:10:11;;;;;;;16.58;6.68;;;;;;;2.20;54.40;100074.25;5115355;28;20276;-73
2022/03/06 08:12:41;;;;;;;14.80;6.95;;;;;;;2.20;54.41;100064.19;5115496;28;20531;-73
2022/03/06 08:15:11;;;;;;;19.65;7.15;;;;;;;2.23;54.73;100046.66;5115800;28;20048;-73
2022/03/06 08:17:41;;;;;;;13.77;7.05;;;;;;;2.47;55.06;100067.72;5115385;28;20126;-73
2022/03/06 08:20:11;;;;;;;14.55;6.80;;;;;;;2.62;53.90;100067.44;5115757;27;20085;-74
2022/03/06 08:22:40;;;;;;;16.67;7.25;;;;;;;2.75;54.13;100066.25;5114452;28;20084;-75
2022/03/06 08:25:10;;;;;;;15.13;7.90;;;;;;;2.71;53.34;100068.63;5115656;28;20063;-75
2022/03/06 08:27:39;;;;;;;13.80;7.43;;;;;;;2.87;54.20;100059.97;5115415;28;20452;-76
2022/03/06 08:30:08;;;;;;;12.27;5.85;;;;;;;2.94;53.47;100061.91;5114194;28;20047;-74
2022/03/06 08:32:39;;;;;;;20.45;7.32;;;;;;;2.96;53.45;100059.44;5115265;28;20160;-75
2022/03/06 08:35:10;;;;;;;15.15;6.03;;;;;;;3.13;52.85;100064.28;5115043;28;20051;-75
2022/03/06 08:37:39;;;;;;;16.65;6.38;;;;;;;3.24;52.05;100042.78;5115023;28;20047;-76
2022/03/06 08:40:09;;;;;;;12.88;6.57;;;;;;;3.34;52.05;100059.97;5115286;28;20063;-73
2022/03/06 08:42:38;;;;;;;12.93;6.38;;;;;;;3.37;52.29;100060.06;5113803;28;20047;-73
2022/03/06 08:45:08;;;;;;;17.43;6.77;;;;;;;3.54;51.08;100058.09;5114885;28;20036;-73
2022/03/06 08:47:38;;;;;;;13.15;6.47;;;;;;;3.58;51.44;100054.88;5114908;28;20044;-73
2022/03/06 08:50:09;;;;;;;10.43;5.82;;;;;;;3.49;50.43;100054.56;5113850;28;20497;-73
2022/03/06 08:52:38;;;;;;;14.85;6.43;;;;;;;3.51;50.87;100047.91;5113917;28;20043;-73
2022/03/06 08:55:09;;;;;;;12.18;6.25;;;;;;;3.74;50.45;100052.03;5114918;28;20040;-73
2022/03/06 08:57:38;;;;;;;13.43;6.70;;;;;;;3.95;50.23;100052.75;5115394;28;20070;-75
2022/03/06 09:00:09;;;;;;;12.57;6.10;;;;;;;4.01;50.73;100045.34;5116572;28;20063;-76
2022/03/06 09:02:38;;;;;;;13.98;6.45;;;;;;;3.95;50.47;100052.75;5114022;28;20057;-76
2022/03/06 09:05:10;;;;;;;14.35;6.32;;;;;;;4.05;50.22;100048.84;5113352;28;20126;-76
2022/03/06 09:07:38;;;;;;;12.15;6.05;;;;;;;4.16;49.80;100059.25;5114553;27;20043;-76
2022/03/06 09:10:09;;;;;;;14.95;6.93;;;;;;;4.08;49.81;100059.00;5114440;28;20051;-76
2022/03/06 09:12:40;;;;;;;12.38;6.82;;;;;;;4.08;49.79;100049.75;5114080;28;20043;-76
2022/03/06 09:15:11;;;;;;;13.63;6.22;;;;;;;3.92;49.37;100046.72;5113757;28;20122;-73
2022/03/06 09:17:41;;;;;;;16.42;7.07;;;;;;;4.11;50.42;100045.63;5114138;28;20040;-73
2022/03/06 09:20:12;;;;;;;13.77;6.75;;;;;;;4.16;50.44;100042.44;5114238;28;20047;-73
2022/03/06 09:22:41;;;;;;;13.38;6.70;;;;;;;4.49;49.53;100042.56;5114147;28;20075;-73
2022/03/06 09:25:11;;;;;;;15.05;6.93;;;;;;;4.65;49.59;100034.63;5113021;28;20102;-73
2022/03/06 09:27:40;;;;;;;12.33;6.73;;;;;;;4.91;48.96;100043.78;5114037;28;20044;-74
2022/03/06 09:30:10;;;;;;;12.83;5.67;;;;;;;5.28;48.15;100043.94;5114347;28;20272;-74
2022/03/06 09:32:40;;;;;;;14.77;6.53;;;;;;;5.67;47.89;100035.63;5114045;28;20048;-74
2022/03/06 09:35:11;;;;;;;12.40;6.55;;;;;;;5.18;46.86;100034.38;5113292;28;20485;-74
2022/03/06 09:37:44;;;;;;;12.93;6.43;;;;;;;5.18;46.55;100036.09;5114098;28;20089;-75
2022/03/06 09:40:13;;;;;;;12.57;6.25;;;;;;;5.33;46.30;100039.84;5113924;28;20042;-75
2022/03/06 09:42:43;;;;;;;13.43;6.40;;;;;;;5.68;46.40;100024.69;5114069;28;20396;-75
2022/03/06 09:45:13;;;;;;;11.65;6.38;;;;;;;6.13;45.20;100018.19;5113000;28;20050;-76
2022/03/06 09:47:45;;;;;;;13.23;6.18;;;;;;;6.21;44.89;100009.09;5114022;28;20044;-74
2022/03/06 09:50:16;;;;;;;13.32;6.45;;;;;;;6.37;44.69;100005.19;5114406;28;20558;-73
2022/03/06 09:52:45;;;;;;;14.05;6.10;;;;;;;6.93;43.82;100007.19;5113485;28;20392;-75
2022/03/06 09:55:14;;;;;;;8.55;4.32;;;;;;;6.96;42.82;100001.34;5113791;28;20123;-73
2022/03/06 09:57:43;;;;;;;11.50;5.57;;;;;;;6.51;42.21;100001.25;5113986;28;20047;-73
2022/03/06 10:00:13;;;;;;;12.68;6.20;;;;;;;6.18;43.16;99996.34;5113766;28;20044;-74
2022/03/06 10:02:54;;;;;;;11.63;6.03;;;;;;;6.47;43.30;99995.28;5113698;28;20107;-74
2022/03/06 10:05:29;;;;;;;12.18;5.50;;;;;;;7.20;42.98;99989.91;5114183;28;20043;-73
2022/03/06 10:08:15;;;;;;;11.23;5.85;;;;;;;7.93;42.31;99994.50;5113796;28;20097;-74
2022/03/06 10:10:46;;;;;;;15.73;6.35;;;;;;;8.15;41.62;99988.06;5113356;28;20051;-75
2022/03/06 10:13:20;;;;;;;11.18;5.85;;;;;;;7.79;41.12;99990.06;5116349;28;20048;-75
2022/03/06 10:16:01;;;;;;;12.32;5.93;;;;;;;7.48;41.36;99977.69;5118052;28;20505;-75
2022/03/06 10:18:32;;;;;;;13.68;6.53;;;;;;;6.88;40.80;99987.63;5117738;28;20118;-76
2022/03/06 10:21:22;;;;;;;13.57;6.35;;;;;;;7.27;40.81;99984.13;5117804;28;20493;-73
2022/03/06 10:23:54;;;;;;;10.27;5.45;;;;;;;7.62;40.43;99987.25;5117923;28;20054;-75
2022/03/06 10:26:25;;;;;;;10.05;5.55;;;;;;;7.91;39.68;99983.47;5117685;28;20378;-74
2022/03/06 10:28:57;;;;;;;9.73;5.13;;;;;;;7.93;38.85;99953.84;5117447;28;20566;-75
2022/03/06 10:31:28;;;;;;;12.13;5.90;;;;;;;8.06;38.71;99975.22;5117491;28;20055;-75
2022/03/06 10:34:04;;;;;;;10.45;5.07;;;;;;;7.77;38.52;99977.34;5117783;28;20047;-74
2022/03/06 10:36:37;;;;;;;11.25;5.78;;;;;;;7.91;38.72;99970.78;5117598;28;20062;-76
2022/03/06 10:39:11;;;;;;;11.55;5.80;;;;;;;8.15;38.84;99969.41;5117234;28;20046;-74
2022/03/06 10:41:42;;;;;;;10.88;5.65;;;;;;;8.50;39.14;99968.19;5116284;28;20044;-74
2022/03/06 10:44:12;;;;;;;10.55;4.97;;;;;;;8.61;39.68;99946.28;5117227;28;20067;-76
2022/03/06 10:46:42;;;;;;;11.13;5.63;;;;;;;9.05;38.69;99965.41;5117200;28;20047;-76
2022/03/06 10:49:16;;;;;;;10.52;5.40;;;;;;;8.54;38.32;99959.78;5117521;28;20100;-75
2022/03/06 10:51:48;;;;;;;9.63;5.00;;;;;;;7.87;38.55;99958.00;5117823;28;20504;-76
2022/03/06 10:54:17;;;;;;;11.35;6.18;;;;;;;8.13;38.58;99955.81;5117852;28;20071;-75
2022/03/06 10:56:50;;;;;;;13.50;5.45;;;;;;;8.67;37.57;99953.97;5116762;28;20054;-76
2022/03/06 10:59:21;;;;;;;9.15;5.10;;;;;;;7.95;38.38;99957.28;5117167;27;20046;-74
2022/03/06 11:01:51;;;;;;;8.55;4.40;;;;;;;7.23;38.41;99967.13;5115631;28;20486;-76
2022/03/06 11:04:21;;;;;;;9.85;4.70;;;;;;;6.95;38.39;99957.34;5116816;28;20504;-75
2022/03/06 11:06:53;;;;;;;9.02;4.85;;;;;;;7.46;37.55;99959.06;5116815;28;20051;-73
2022/03/06 11:09:23;;;;;;;9.30;5.28;;;;;;;7.85;37.75;99912.22;5115480;28;20127;-73
2022/03/06 11:11:52;;;;;;;10.00;4.82;;;;;;;7.12;36.69;99805.38;5116702;28;20048;-75
2022/03/06 11:14:21;;;;;;;11.38;5.28;;;;;;;8.07;36.11;99934.56;5115580;28;20046;-74
2022/03/06 11:16:50;;;;;;;12.77;5.38;;;;;;;8.31;36.03;99935.72;5115402;28;20036;-73
2022/03/06 11:19:19;;;;;;;11.52;5.82;;;;;;;8.05;36.65;99932.84;5116304;28;20075;-74
2022/03/06 11:21:56;;;;;;;12.70;5.93;;;;;;;8.15;36.41;99936.34;5116847;28;20042;-74
2022/03/06 11:24:28;;;;;;;9.55;5.28;;;;;;;8.22;36.65;99923.75;5115063;28;20066;-74
2022/03/06 11:27:10;;;;;;;10.43;4.88;;;;;;;8.37;36.28;99928.19;5116467;28;20048;-73
2022/03/06 11:30:05;;;;;;;12.52;4.95;;;;;;;8.67;36.62;99918.34;5116728;28;20043;-75
2022/03/06 11:32:36;;;;;;;10.40;5.90;;;;;;;9.09;36.64;99911.16;5115095;28;20040;-75
2022/03/06 11:35:08;;;;;;;10.57;5.45;;;;;;;9.79;35.44;99904.84;5116224;28;20051;-75
2022/03/06 11:37:56;;;;;;;13.60;5.82;;;;;;;10.02;35.47;99910.09;5116575;28;20071;-75